Time;durP1;ratioP1;P1;durP2;ratioP2;P2;SDS_P1;SDS_P2;PMS_P1;PMS_P2;Temp;Humidity;BMP_temperature;BMP_pressure;BME280_temperature;BME280_humidity;BME280_pressure;Samples;Min_cycle;Max_cycle;Signal;HPM_P1;HPM_P2
2022/09/05 00:02:00;;;;;;;;;2.00;1.00;;;;;23.72;49.74;100781.69;5036527;28;45499;-75
2022/09/05 00:05:01;;;;;;;;;2.00;2.00;;;;;23.69;50.01;100775.66;5036140;28;45378;-76
2022/09/05 00:07:38;;;;;;;;;2.00;2.00;;;;;23.65;50.09;100784.94;5035974;28;45610;-76
2022/09/05 00:10:14;;;;;;;;;3.00;2.00;;;;;23.60;50.02;100786.13;5035558;28;45384;-76
2022/09/05 00:12:40;;;;;;;;;1.75;1.75;;;;;23.57;49.81;100786.34;5035130;28;45348;-76
2022/09/05 00:15:42;;;;;;;;;2.00;2.00;;;;;23.53;50.22;100800.16;5036188;28;45402;-76
2022/09/05 00:18:28;;;;;;;;;2.50;1.00;;;;;23.40;50.58;100797.47;5035980;28;45443;-74
2022/09/05 00:21:36;;;;;;;;;1.00;1.00;;;;;23.33;50.95;100798.88;5035341;28;46165;-74
2022/09/05 00:24:27;;;;;;;;;1.00;1.00;;;;;23.28;50.86;100803.72;5035089;28;45453;-75
2022/09/05 00:27:27;;;;;;;;;1.00;1.00;;;;;23.24;50.92;100803.94;5035488;28;45431;-75
2022/09/05 00:30:01;;;;;;;;;1.25;1.00;;;;;23.22;50.46;100807.72;5036648;28;45445;-75
2022/09/05 00:32:45;;;;;;;;;2.00;2.00;;;;;23.21;50.29;100796.03;5035884;28;45344;-75
2022/09/05 00:35:18;;;;;;;;;1.50;1.50;;;;;23.16;50.28;100782.03;5035174;28;45299;-75
2022/09/05 00:37:47;;;;;;;;;2.25;2.25;;;;;23.18;50.49;100787.31;5035340;28;45582;-75
2022/09/05 00:40:25;;;;;;;;;1.00;1.00;;;;;23.13;50.01;100776.88;5035397;28;45413;-76
2022/09/05 00:42:57;;;;;;;;;2.00;2.00;;;;;23.12;50.44;100777.81;5035000;28;45481;-75
2022/09/05 00:45:42;;;;;;;;;1.75;1.75;;;;;23.05;50.09;100769.28;5035296;28;45389;-74
2022/09/05 00:48:11;;;;;;;;;2.25;2.25;;;;;23.08;50.59;100781.69;5034998;28;45404;-74
2022/09/05 00:50:56;;;;;;;;;2.25;2.25;;;;;23.07;50.72;100788.03;5034848;28;45436;-75
2022/09/05 00:53:39;;;;;;;;;1.25;1.25;;;;;23.04;50.00;100785.56;5035001;28;46345;-74
2022/09/05 00:56:33;;;;;;;;;1.25;1.25;;;;;23.01;49.76;100793.84;5035486;28;45427;-75
2022/09/05 00:59:21;;;;;;;;;1.75;1.75;;;;;22.98;49.87;100788.69;5035555;28;45584;-75
2022/09/05 01:01:58;;;;;;;;;2.00;2.00;;;;;22.96;50.54;100782.53;5035114;28;45391;-75
2022/09/05 01:04:53;;;;;;;;;2.00;2.00;;;;;23.02;50.11;100787.50;5034967;28;45590;-75
2022/09/05 01:07:41;;;;;;;;;1.00;1.00;;;;;23.02;49.81;100769.50;5034805;28;45515;-75
2022/09/05 01:10:20;;;;;;;;;2.00;2.00;;;;;23.03;50.45;100765.84;5034825;28;45380;-75
2022/09/05 01:13:00;;;;;;;;;2.00;2.00;;;;;23.02;50.63;100757.88;5034916;28;45384;-76
2022/09/05 01:15:33;;;;;;;;;2.25;2.25;;;;;23.02;51.04;100757.88;5034745;28;45613;-75
2022/09/05 01:18:13;;;;;;;;;1.00;1.00;;;;;23.05;50.89;100763.03;5016904;28;46300;-76
2022/09/05 01:21:11;;;;;;;;;1.50;1.50;;;;;23.06;51.29;100772.81;5034674;28;45531;-75
2022/09/05 01:23:55;;;;;;;;;1.00;1.00;;;;;23.07;50.69;100788.03;5011576;28;45641;-75
2022/09/05 01:26:42;;;;;;;;;2.00;2.00;;;;;23.12;50.80;100828.19;5035664;28;46236;-76
2022/09/05 01:29:25;;;;;;;;;1.00;1.00;;;;;23.10;50.84;100833.69;5034470;28;45411;-75
2022/09/05 01:31:56;;;;;;;;;0.00;0.00;;;;;23.06;53.21;100830.31;5034523;28;45411;-76
2022/09/05 01:34:49;;;;;;;;;5.50;2.75;;;;;22.86;71.60;100850.50;5034839;28;45333;-75
2022/09/05 01:37:48;;;;;;;;;5.00;3.00;;;;;22.11;67.75;100780.94;5034126;28;46220;-76
2022/09/05 01:40:26;;;;;;;;;2.75;2.75;;;;;21.91;64.41;100773.28;5034535;28;45547;-75
2022/09/05 01:43:08;;;;;;;;;2.75;2.00;;;;;21.70;63.02;100754.88;5013074;28;45573;-75
2022/09/05 01:45:48;;;;;;;;;0.50;0.50;;;;;21.63;64.42;100748.16;5014602;28;45725;-75
2022/09/05 01:48:29;;;;;;;;;2.00;2.00;;;;;21.62;62.95;100732.97;5014317;28;46395;-75
2022/09/05 01:51:27;;;;;;;;;1.25;1.25;;;;;21.58;65.92;100726.09;5013627;28;45411;-76
2022/09/05 01:54:15;;;;;;;;;2.75;2.75;;;;;21.46;68.12;100733.06;5014704;28;45442;-75
2022/09/05 01:56:49;;;;;;;;;1.00;1.00;;;;;21.42;65.89;100759.28;5014184;28;45435;-75
2022/09/05 01:59:26;;;;;;;;;4.75;3.50;;;;;21.30;65.11;100765.41;5013984;28;46253;-75
2022/09/05 02:02:25;;;;;;;;;2.00;2.00;;;;;21.22;65.48;100783.84;5029779;28;45336;-75
2022/09/05 02:05:16;;;;;;;;;3.00;3.00;;;;;21.17;65.76;100775.22;5034163;28;45498;-75
2022/09/05 02:08:18;;;;;;;;;2.50;2.50;;;;;21.10;64.53;100769.34;5034016;28;45373;-74
2022/09/05 02:11:10;;;;;;;;;3.00;1.50;;;;;21.10;63.74;100766.66;5033523;28;45409;-74
2022/09/05 02:13:35;;;;;;;;;3.00;2.50;;;;;21.01;64.91;100759.16;5020798;28;45476;-74
2022/09/05 02:16:15;;;;;;;;;3.00;3.00;;;;;20.98;65.66;100768.25;5033988;28;45399;-75
2022/09/05 02:18:53;;;;;;;;;4.50;3.00;;;;;20.92;65.04;100769.50;5034278;28;45342;-75
2022/09/05 02:21:44;;;;;;;;;3.00;2.00;;;;;20.86;64.96;100766.31;5033166;28;46325;-74
2022/09/05 02:24:22;;;;;;;;;3.25;3.25;;;;;20.89;65.37;100776.88;5033842;28;45446;-76
2022/09/05 02:27:22;;;;;;;;;1.00;1.00;;;;;20.86;65.13;100772.56;5033135;28;45493;-74
2022/09/05 02:30:00;;;;;;;;;4.50;4.50;;;;;20.89;64.48;100771.50;5001114;28;45555;-75
2022/09/05 02:32:42;;;;;;;;;2.75;2.75;;;;;20.93;64.39;100762.31;5033601;28;45558;-75
2022/09/05 02:35:28;;;;;;;;;3.00;3.00;;;;;20.97;65.15;100762.97;5033191;28;45515;-74
2022/09/05 02:38:10;;;;;;;;;2.00;2.00;;;;;20.98;64.62;100754.81;5033873;28;45265;-75
2022/09/05 02:40:36;;;;;;;;;6.00;3.75;;;;;20.97;64.33;100763.84;5033193;28;45325;-75
2022/09/05 02:43:12;;;;;;;;;3.50;2.00;;;;;20.91;64.31;100765.09;5033432;28;46550;-74
2022/09/05 02:45:48;;;;;;;;;2.75;2.75;;;;;20.89;64.25;100767.00;5033535;28;45384;-74
2022/09/05 02:48:51;;;;;;;;;1.00;1.00;;;;;20.93;65.40;100767.69;5015295;28;45428;-74
2022/09/05 02:51:50;;;;;;;;;2.25;2.25;;;;;20.92;64.21;100765.94;5015467;28;45524;-75
2022/09/05 02:54:24;;;;;;;;;3.50;3.25;;;;;20.89;64.50;100782.25;5033202;28;46503;-73
2022/09/05 02:57:05;;;;;;;;;4.00;4.00;;;;;20.85;64.45;100791.47;5032954;28;45462;-75
2022/09/05 03:00:00;;;;;;;;;2.00;2.00;;;;;20.80;63.30;100796.22;5033667;28;45595;-75
2022/09/05 03:03:03;;;;;;;;;3.00;3.00;;;;;20.80;63.95;100789.06;5033327;28;45503;-74
2022/09/05 03:05:44;;;;;;;;;2.50;2.00;;;;;20.80;63.84;100780.09;5033106;28;45366;-76
2022/09/05 03:08:12;;;;;;;;;2.75;2.75;;;;;20.81;64.27;100789.91;5032244;28;45495;-75
2022/09/05 03:11:05;;;;;;;;;2.00;2.00;;;;;20.81;65.12;100793.44;5032855;28;45418;-75
2022/09/05 03:13:55;;;;;;;;;2.00;2.00;;;;;20.79;64.16;100810.63;5033230;28;45575;-78
2022/09/05 03:16:32;;;;;;;;;2.00;2.00;;;;;20.71;64.45;100801.19;5033164;28;45501;-77
2022/09/05 03:19:25;;;;;;;;;2.00;2.00;;;;;20.73;63.98;100810.00;5032255;28;45492;-77
2022/09/05 03:21:53;;;;;;;;;2.50;2.50;;;;;20.71;64.97;100805.69;5033512;28;45470;-76
2022/09/05 03:24:39;;;;;;;;;4.00;3.00;;;;;20.73;64.43;100814.53;5034048;28;45565;-76
2022/09/05 03:27:07;;;;;;;;;2.25;2.25;;;;;20.71;65.15;100819.09;5033724;28;46044;-75
2022/09/05 03:29:51;;;;;;;;;3.00;1.00;;;;;20.69;65.49;100826.41;5035780;28;45472;-76
2022/09/05 03:32:22;;;;;;;;;3.50;3.50;;;;;20.67;64.99;100826.50;5018379;28;45389;-76
2022/09/05 03:35:25;;;;;;;;;5.00;3.00;;;;;20.67;64.77;100821.13;5036501;28;45570;-77
2022/09/05 03:38:28;;;;;;;;;4.75;4.00;;;;;20.66;66.06;100822.06;5018276;28;46344;-75
2022/09/05 03:41:26;;;;;;;;;4.75;4.00;;;;;20.64;65.50;100826.63;5036001;28;45395;-76
2022/09/05 03:44:12;;;;;;;;;4.75;3.75;;;;;20.61;66.22;100821.44;5036429;28;45525;-76
2022/09/05 03:47:10;;;;;;;;;2.75;2.75;;;;;20.61;65.67;100826.81;5036292;28;45463;-76
2022/09/05 03:49:57;;;;;;;;;4.75;4.75;;;;;20.56;66.18;100813.66;5036587;28;45477;-75
2022/09/05 03:52:37;;;;;;;;;3.75;3.75;;;;;20.55;66.00;100817.28;5036443;28;45330;-75
2022/09/05 03:55:23;;;;;;;;;3.75;3.75;;;;;20.52;66.47;100809.41;5036477;28;45550;-75
2022/09/05 03:57:54;;;;;;;;;5.25;5.25;;;;;20.49;67.06;100812.28;5036256;28;45670;-76
2022/09/05 04:00:20;;;;;;;;;4.50;4.50;;;;;20.47;67.78;100803.47;5036024;28;46232;-76
2022/09/05 04:02:59;;;;;;;;;4.75;3.00;;;;;20.45;67.12;100804.50;5036070;28;45413;-75
2022/09/05 04:05:30;;;;;;;;;5.75;4.75;;;;;20.43;67.15;100812.63;5036219;28;45550;-76
2022/09/05 04:08:27;;;;;;;;;3.00;3.00;;;;;20.41;66.25;100817.22;5036219;28;45427;-75
2022/09/05 04:10:56;;;;;;;;;5.00;4.75;;;;;20.42;66.12;100822.50;5035511;28;46062;-75
2022/09/05 04:13:28;;;;;;;;;4.50;4.50;;;;;20.41;66.39;100818.09;5035787;28;45552;-77
2022/09/05 04:16:05;;;;;;;;;3.25;3.25;;;;;20.42;66.25;100821.63;5036424;28;45364;-77
2022/09/05 04:18:43;;;;;;;;;4.75;4.50;;;;;20.40;67.01;100812.81;5036199;28;45404;-76
2022/09/05 04:21:19;;;;;;;;;5.50;4.25;;;;;20.23;68.23;100790.47;5035687;28;45354;-74
2022/09/05 04:24:03;;;;;;;;;5.00;5.00;;;;;20.40;68.67;100826.22;5018776;28;45375;-76
2022/09/05 04:26:47;;;;;;;;;2.50;2.50;;;;;20.37;67.70;100808.47;5017403;28;45447;-75
2022/09/05 04:29:57;;;;;;;;;4.00;4.00;;;;;20.37;68.19;100813.84;5035675;28;45568;-75
2022/09/05 04:32:47;;;;;;;;;5.25;4.00;;;;;20.35;66.94;100812.22;4954182;28;45601;-74
2022/09/05 04:35:24;;;;;;;;;7.75;6.75;;;;;20.34;68.57;100814.00;4954517;28;45449;-74
2022/09/05 04:38:30;;;;;;;;;3.50;3.50;;;;;20.29;67.79;100808.06;4954089;28;45542;-75
2022/09/05 04:40:55;;;;;;;;;4.50;4.50;;;;;20.29;67.93;100813.44;4943727;28;45636;-74
2022/09/05 04:43:35;;;;;;;;;4.75;4.75;;;;;20.24;68.00;100823.56;4954987;28;45500;-76
2022/09/05 04:46:06;;;;;;;;;8.75;6.00;;;;;20.27;68.51;100826.06;4938443;28;45484;-76
2022/09/05 04:48:37;;;;;;;;;5.00;5.00;;;;;20.24;68.88;100835.16;4954977;28;45492;-75
2022/09/05 04:51:03;;;;;;;;;4.75;4.75;;;;;20.27;68.92;100839.50;4954581;28;45549;-77
2022/09/05 04:53:43;;;;;;;;;5.25;3.50;;;;;20.22;69.47;100847.81;4954162;28;46569;-76
2022/09/05 04:56:17;;;;;;;;;6.00;6.00;;;;;20.24;69.57;100850.41;4953683;28;45514;-76
2022/09/05 04:58:54;;;;;;;;;8.25;5.00;;;;;20.23;69.38;100854.03;4953962;28;45550;-76
2022/09/05 05:01:33;;;;;;;;;4.75;4.75;;;;;20.21;70.46;100850.56;4957133;28;45636;-76
2022/09/05 05:04:06;;;;;;;;;4.50;4.50;;;;;20.17;70.01;100841.81;4953745;28;45489;-77
2022/09/05 05:06:39;;;;;;;;;3.50;3.50;;;;;20.20;69.85;100844.31;4953903;28;45421;-77
2022/09/05 05:09:27;;;;;;;;;8.00;6.25;;;;;20.20;70.14;100846.16;4990741;28;45444;-77
2022/09/05 05:12:01;;;;;;;;;5.00;5.00;;;;;20.19;69.66;100847.09;5035525;28;45613;-77
2022/09/05 05:14:33;;;;;;;;;6.75;6.75;;;;;20.18;70.54;100840.00;5035110;28;46155;-78
2022/09/05 05:17:22;;;;;;;;;8.00;7.00;;;;;20.20;70.24;100843.47;5034935;28;45466;-77
2022/09/05 05:19:55;;;;;;;;;8.50;8.00;;;;;20.17;70.39;100849.84;5035368;28;45507;-76
2022/09/05 05:22:20;;;;;;;;;7.50;7.50;;;;;20.21;70.11;100850.56;5035199;28;45376;-76
2022/09/05 05:24:51;;;;;;;;;7.00;5.00;;;;;20.23;70.04;100848.66;5034977;28;45375;-76
2022/09/05 05:27:23;;;;;;;;;5.00;4.00;;;;;20.26;69.70;100843.13;5033836;28;45397;-76
2022/09/05 05:30:05;;;;;;;;;9.25;7.25;;;;;20.29;70.32;100842.09;5034021;28;45354;-77
2022/09/05 05:32:50;;;;;;;;;6.25;5.25;;;;;20.37;68.83;100840.69;5035187;28;45638;-76
2022/09/05 05:35:26;;;;;;;;;6.75;6.75;;;;;20.83;68.71;100853.31;5034294;28;45502;-77
2022/09/05 05:38:06;;;;;;;;;5.25;5.25;;;;;21.19;67.25;100827.88;5034630;28;45410;-77
2022/09/05 05:40:34;;;;;;;;;7.00;7.00;;;;;21.68;65.45;100848.22;5034826;28;45452;-76
2022/09/05 05:43:15;;;;;;;;;5.25;5.25;;;;;22.00;63.98;100846.22;5035074;28;45603;-76
2022/09/05 05:45:41;;;;;;;;;8.75;7.00;;;;;22.48;63.08;100839.59;5017004;28;46273;-77
2022/09/05 05:48:18;;;;;;;;;8.50;6.25;;;;;23.11;61.03;100854.28;5034439;28;45422;-76
2022/09/05 05:51:12;;;;;;;;;10.00;7.00;;;;;23.47;59.73;100852.69;5033542;28;45589;-77
2022/09/05 05:53:57;;;;;;;;;8.00;8.00;;;;;23.84;57.38;100849.22;5034492;28;45531;-78
2022/09/05 05:56:43;;;;;;;;;9.25;6.00;;;;;24.50;55.74;100860.66;5034244;28;46715;-78
2022/09/05 05:59:31;;;;;;;;;8.50;8.00;;;;;25.21;53.93;100858.03;5033786;28;45419;-77
2022/09/05 06:02:45;;;;;;;;;5.50;5.50;;;;;25.95;52.61;100860.38;5034154;28;45381;-77
2022/09/05 06:05:26;;;;;;;;;6.00;6.00;;;;;26.58;50.14;100867.94;5016338;28;45509;-78
2022/09/05 06:08:17;;;;;;;;;5.50;5.50;;;;;26.99;48.84;100866.34;5034457;28;45498;-78
2022/09/05 06:11:01;;;;;;;;;7.75;6.00;;;;;27.21;47.63;100881.66;5034448;28;45468;-77
2022/09/05 06:13:39;;;;;;;;;6.50;5.50;;;;;27.08;47.14;100887.25;5016662;28;45436;-77
2022/09/05 06:16:25;;;;;;;;;7.50;6.75;;;;;26.97;46.83;100883.75;5034043;28;45586;-77
2022/09/05 06:19:34;;;;;;;;;5.00;5.00;;;;;27.42;46.56;100883.50;5034195;28;46002;-77
2022/09/05 06:22:39;;;;;;;;;7.00;7.00;;;;;28.30;45.38;100889.41;4989517;28;45504;-77
2022/09/05 06:25:23;;;;;;;;;5.25;4.75;;;;;29.02;44.07;100888.25;4952740;28;45555;-77
2022/09/05 06:28:33;;;;;;;;;8.75;5.00;;;;;29.75;42.09;100882.28;4952672;28;45450;-76
2022/09/05 06:31:33;;;;;;;;;8.00;6.00;;;;;30.10;40.58;100893.50;4947869;28;45479;-78
2022/09/05 06:34:20;;;;;;;;;7.00;7.00;;;;;30.73;39.96;100886.41;4857499;29;45635;-78
2022/09/05 06:37:25;;;;;;;;;4.00;4.00;;;;;31.11;38.04;100906.22;4857499;29;45564;-76
2022/09/05 06:40:15;;;;;;;;;6.00;6.00;;;;;31.21;38.00;100915.19;4858190;29;45462;-77
2022/09/05 06:43:02;;;;;;;;;5.75;5.25;;;;;31.52;37.54;100914.75;4856457;29;46198;-77
2022/09/05 06:45:52;;;;;;;;;3.00;3.00;;;;;31.63;36.74;100920.00;4857318;29;45485;-77
2022/09/05 06:48:44;;;;;;;;;4.75;4.75;;;;;31.77;36.61;100936.81;4857226;29;45501;-77
2022/09/05 06:51:42;;;;;;;;;7.00;7.00;;;;;31.98;36.31;100942.75;4855264;29;45579;-76
2022/09/05 06:54:26;;;;;;;;;5.75;5.75;;;;;32.40;35.80;100950.16;4857299;29;46301;-77
2022/09/05 06:57:32;;;;;;;;;4.25;4.25;;;;;32.96;34.66;100970.69;4856632;29;45467;-76
2022/09/05 07:00:22;;;;;;;;;7.25;5.75;;;;;33.26;34.46;100971.97;4857385;29;45477;-75
2022/09/05 07:03:09;;;;;;;;;5.00;5.00;;;;;33.82;33.18;100951.06;4928750;28;45730;-75
2022/09/05 07:05:39;;;;;;;;;4.00;4.00;;;;;34.30;33.56;100944.78;4936067;28;45597;-74
2022/09/05 07:08:07;;;;;;;;;5.50;4.25;;;;;34.26;31.59;100943.44;4936230;28;45530;-75
2022/09/05 07:10:36;;;;;;;;;4.75;3.50;;;;;34.23;32.10;100966.56;4989442;28;45741;-75
2022/09/05 07:13:27;;;;;;;;;4.00;4.00;;;;;34.70;32.22;100962.94;5017498;28;45317;-76
2022/09/05 07:16:15;;;;;;;;;4.50;3.25;;;;;34.86;31.10;100962.03;5016932;28;45478;-77
2022/09/05 07:18:57;;;;;;;;;2.00;2.00;;;;;33.99;31.40;100965.59;5016741;28;45460;-76
2022/09/05 07:21:31;;;;;;;;;3.75;3.75;;;;;33.16;33.48;100977.56;5016786;28;45535;-76
2022/09/05 07:24:05;;;;;;;;;3.25;3.25;;;;;32.89;34.43;100974.09;5015464;28;45345;-77
2022/09/05 07:26:34;;;;;;;;;5.00;5.00;;;;;32.65;34.71;100963.06;5016068;28;46428;-76
2022/09/05 07:29:05;;;;;;;;;6.00;5.00;;;;;32.87;34.19;100958.88;5016360;28;45440;-77
2022/09/05 07:31:34;;;;;;;;;4.00;4.00;;;;;33.10;34.09;100954.47;5028233;28;45463;-76
2022/09/05 07:34:23;;;;;;;;;4.75;4.75;;;;;33.61;33.67;100956.22;5037654;28;45324;-76
2022/09/05 07:36:54;;;;;;;;;5.25;5.25;;;;;33.01;34.11;100960.09;5019235;28;48266;-77
2022/09/05 07:39:35;;;;;;;;;5.25;5.25;;;;;32.44;34.78;100950.69;5035977;28;45455;-77
2022/09/05 07:42:07;;;;;;;;;3.50;3.50;;;;;31.99;35.18;100947.22;5035987;28;45463;-77
2022/09/05 07:44:37;;;;;;;;;5.00;5.00;;;;;31.57;36.19;100952.53;5036673;28;45455;-77
2022/09/05 07:47:22;;;;;;;;;5.50;4.50;;;;;31.04;36.86;100954.28;5036191;28;46550;-77
2022/09/05 07:49:48;;;;;;;;;6.25;6.25;;;;;30.90;37.30;100941.97;5018398;28;45489;-75
2022/09/05 07:52:20;;;;;;;;;5.25;5.00;;;;;31.55;37.02;100930.84;5036397;28;45444;-76
2022/09/05 07:54:50;;;;;;;;;6.00;6.00;;;;;32.67;35.72;100942.75;5018310;28;45456;-77
2022/09/05 07:57:31;;;;;;;;;3.25;3.25;;;;;33.69;34.12;100936.16;5035996;28;46047;-77
2022/09/05 08:00:08;;;;;;;;;4.00;4.00;;;;;34.65;32.29;100931.56;5036186;28;45594;-77
2022/09/05 08:02:34;;;;;;;;;4.00;4.00;;;;;35.54;32.30;100926.50;5016288;28;45436;-77
2022/09/05 08:05:04;;;;;;;;;5.00;4.00;;;;;36.34;29.67;100921.38;4998465;28;45446;-77
2022/09/05 08:07:34;;;;;;;;;2.75;2.75;;;;;36.78;29.07;100912.16;5015927;28;46440;-77
2022/09/05 08:10:11;;;;;;;;;4.75;4.75;;;;;37.17;28.87;100921.00;5015655;28;45394;-77
2022/09/05 08:12:44;;;;;;;;;5.00;4.00;;;;;37.68;29.21;100918.03;5014538;28;45347;-76
2022/09/05 08:15:26;;;;;;;;;6.50;5.00;;;;;37.78;28.23;100908.59;5016414;28;45488;-77
2022/09/05 08:18:12;;;;;;;;;4.50;4.50;;;;;38.10;26.87;100917.25;5015659;28;45499;-76
2022/09/05 08:21:02;;;;;;;;;3.75;3.00;;;;;38.33;26.50;100915.06;5019996;28;45466;-77
2022/09/05 08:24:08;;;;;;;;;2.00;2.00;;;;;37.66;26.54;100909.13;5035420;28;45492;-76
2022/09/05 08:26:40;;;;;;;;;6.00;5.50;;;;;37.27;27.00;100916.03;5034963;28;45445;-77
2022/09/05 08:29:29;;;;;;;;;3.50;3.50;;;;;37.07;27.74;100918.59;5035524;28;46377;-77
2022/09/05 08:31:55;;;;;;;;;4.00;4.00;;;;;37.31;27.02;100920.09;5035904;28;45487;-74
2022/09/05 08:34:39;;;;;;;;;3.25;3.25;;;;;37.16;27.08;100922.91;5035984;28;45416;-76
2022/09/05 08:37:09;;;;;;;;;4.75;4.75;;;;;37.51;27.38;100916.66;5017263;28;45423;-78
2022/09/05 08:39:35;;;;;;;;;5.00;5.00;;;;;38.13;25.88;100925.16;5035262;28;46131;-76
2022/09/05 08:42:09;;;;;;;;;3.75;3.75;;;;;38.46;26.52;100918.94;5034986;28;45403;-76
2022/09/05 08:44:50;;;;;;;;;3.75;3.75;;;;;38.33;26.33;100915.06;5035909;28;45382;-76
2022/09/05 08:47:45;;;;;;;;;4.00;4.00;;;;;37.97;26.52;100923.56;5035468;28;45505;-77
2022/09/05 08:50:33;;;;;;;;;4.00;4.00;;;;;37.32;26.55;100924.59;5034762;28;45484;-77
2022/09/05 08:53:33;;;;;;;;;4.75;4.75;;;;;36.95;27.99;100929.28;5035041;28;45614;-78
2022/09/05 08:56:16;;;;;;;;;4.50;4.50;;;;;36.81;27.81;100928.28;5035296;28;45405;-77
2022/09/05 08:58:56;;;;;;;;;3.00;3.00;;;;;36.66;27.49;100938.47;5036508;28;45634;-75
2022/09/05 09:01:43;;;;;;;;;4.75;4.50;;;;;36.69;28.21;100951.84;5024657;28;45526;-77
2022/09/05 09:04:17;;;;;;;;;5.25;4.50;;;;;36.57;28.93;100968.00;5013856;28;46146;-77
2022/09/05 09:07:09;;;;;;;;;4.75;4.75;;;;;36.27;28.21;100956.16;5014607;28;45459;-76
2022/09/05 09:10:03;;;;;;;;;4.00;3.75;;;;;35.99;28.49;100944.97;5014950;28;45672;-76
2022/09/05 09:13:07;;;;;;;;;4.75;3.50;;;;;35.56;28.88;100949.16;5034041;28;45416;-75
2022/09/05 09:16:05;;;;;;;;;3.75;3.25;;;;;34.91;29.10;100945.03;5035888;28;45405;-78
2022/09/05 09:18:50;;;;;;;;;3.50;2.50;;;;;34.45;29.65;100956.75;5034946;28;45434;-77
2022/09/05 09:21:24;;;;;;;;;4.00;4.00;;;;;34.12;31.15;100959.56;5002216;28;45712;-77
2022/09/05 09:24:18;;;;;;;;;5.00;5.00;;;;;33.86;30.35;100956.19;5034935;28;45555;-76
2022/09/05 09:26:54;;;;;;;;;3.00;3.00;;;;;34.38;30.13;100952.13;4952425;28;45525;-75
2022/09/05 09:29:22;;;;;;;;;3.00;3.00;;;;;34.78;30.38;100951.09;4953141;28;45584;-76
2022/09/05 09:31:48;;;;;;;;;4.25;3.75;;;;;34.72;30.78;100954.53;4937225;28;45771;-76
2022/09/05 09:34:35;;;;;;;;;2.25;2.25;;;;;35.09;28.91;100933.75;4955513;28;45475;-76
2022/09/05 09:37:34;;;;;;;;;1.00;1.00;;;;;35.10;28.51;100945.56;4953984;28;45511;-76
2022/09/05 09:40:24;;;;;;;;;3.00;3.00;;;;;34.76;28.22;100923.00;4953363;28;45421;-75
2022/09/05 09:43:13;;;;;;;;;2.00;2.00;;;;;34.70;29.13;100930.00;4953500;28;45616;-77
2022/09/05 09:46:15;;;;;;;;;2.25;2.25;;;;;34.96;28.38;100930.75;4953451;28;47082;-78
2022/09/05 09:49:22;;;;;;;;;3.00;2.00;;;;;35.99;28.26;100922.97;4953097;28;45548;-76
2022/09/05 09:52:01;;;;;;;;;3.00;3.00;;;;;36.71;26.72;100916.69;4952710;28;45583;-77
2022/09/05 09:54:43;;;;;;;;;4.00;3.00;;;;;37.32;26.59;100923.72;4953105;28;45635;-77
2022/09/05 09:57:35;;;;;;;;;3.00;2.50;;;;;37.97;24.92;100915.28;4953149;28;46087;-78
2022/09/05 10:00:06;;;;;;;;;1.00;1.00;;;;;38.35;24.42;100912.94;4934008;28;45550;-76
2022/09/05 10:03:01;;;;;;;;;2.00;2.00;;;;;38.74;23.76;100894.84;4973725;28;45507;-80
2022/09/05 10:05:29;;;;;;;;;2.25;1.00;;;;;39.16;24.53;100891.97;5013306;28;45406;-76
2022/09/05 10:08:07;;;;;;;;;3.00;3.00;;;;;39.44;23.54;100891.72;5014526;28;45465;-77
2022/09/05 10:10:56;;;;;;;;;2.00;2.00;;;;;39.68;22.25;100880.25;5013293;28;45420;-76
2022/09/05 10:13:22;;;;;;;;;1.00;1.00;;;;;40.00;22.62;100881.22;5013966;28;45357;-76
2022/09/05 10:15:57;;;;;;;;;0.25;0.25;;;;;40.18;21.35;100876.88;5014404;28;45629;-77
2022/09/05 10:18:49;;;;;;;;;0.25;0.25;;;;;40.35;21.07;100869.78;5014790;28;46175;-71
2022/09/05 10:21:42;;;;;;;;;0.00;0.00;;;;;40.31;22.04;100876.84;5013716;28;45395;-77
2022/09/05 10:24:22;;;;;;;;;2.25;1.75;;;;;40.35;21.00;100877.25;5017164;28;45393;-75
2022/09/05 10:27:03;;;;;;;;;2.00;1.00;;;;;40.45;21.09;100877.63;4995750;28;45476;-75
2022/09/05 10:29:47;;;;;;;;;1.00;1.00;;;;;40.61;20.40;100882.66;5014019;28;45507;-76
2022/09/05 10:32:20;;;;;;;;;0.00;0.00;;;;;40.80;20.21;100875.31;5014028;28;45502;-75
2022/09/05 10:35:06;;;;;;;;;1.25;0.00;;;;;40.72;21.43;100877.47;5012254;28;45533;-76
2022/09/05 10:37:44;;;;;;;;;2.50;0.75;;;;;40.78;20.49;100869.13;5013739;28;45437;-73
2022/09/05 10:40:17;;;;;;;;;0.00;0.00;;;;;40.98;21.20;100869.03;5013655;28;45404;-74
2022/09/05 10:42:46;;;;;;;;;0.00;0.00;;;;;41.03;19.94;100858.09;5013836;28;45543;-74
2022/09/05 10:45:28;;;;;;;;;0.00;0.00;;;;;41.01;19.87;100859.38;5013562;28;45444;-76
2022/09/05 10:48:12;;;;;;;;;0.00;0.00;;;;;40.96;19.83;100860.06;5013227;28;45441;-75
2022/09/05 10:50:43;;;;;;;;;1.00;1.00;;;;;41.09;21.16;100852.72;5027024;28;46236;-74
2022/09/05 10:53:19;;;;;;;;;1.50;1.50;;;;;41.15;20.16;100860.97;5015459;28;45495;-74
2022/09/05 10:56:00;;;;;;;;;0.25;0.25;;;;;41.09;20.80;100855.47;5033340;28;45446;-74
2022/09/05 10:58:31;;;;;;;;;1.00;1.00;;;;;41.05;19.77;100855.09;5033754;28;45458;-74
2022/09/05 11:01:27;;;;;;;;;1.25;0.00;;;;;40.84;20.84;100854.38;5025344;28;45355;-74
2022/09/05 11:04:10;;;;;;;;;1.00;1.00;;;;;40.72;20.60;100847.84;5008292;28;45364;-74
2022/09/05 11:06:41;;;;;;;;;1.25;1.25;;;;;40.49;20.01;100860.38;5013772;28;45368;-74
2022/09/05 11:09:11;;;;;;;;;0.25;0.25;;;;;40.28;20.78;100858.75;5013424;28;45432;-75
2022/09/05 11:11:44;;;;;;;;;5.00;4.25;;;;;40.13;20.95;100848.00;5012684;28;45538;-74
2022/09/05 11:14:55;;;;;;;;;2.00;2.00;;;;;39.80;21.39;100854.47;5013003;28;45472;-75
2022/09/05 11:17:30;;;;;;;;;0.00;0.00;;;;;39.32;20.89;100849.22;5011927;28;45594;-75
2022/09/05 11:20:27;;;;;;;;;1.00;1.00;;;;;39.39;20.89;100847.31;5013000;28;45550;-75
2022/09/05 11:22:59;;;;;;;;;0.00;0.00;;;;;39.56;22.33;100844.13;5013356;28;46441;-74
2022/09/05 11:25:27;;;;;;;;;0.25;0.25;;;;;39.62;20.75;100846.00;5012268;28;45376;-75
2022/09/05 11:27:56;;;;;;;;;0.25;0.25;;;;;39.34;21.17;100838.78;5012637;28;45680;-74
2022/09/05 11:30:26;;;;;;;;;2.00;2.00;;;;;39.05;20.66;100840.94;5012076;28;45514;-75
2022/09/05 11:33:07;;;;;;;;;0.00;0.00;;;;;38.86;22.35;100839.03;5012660;28;45482;-75
2022/09/05 11:36:01;;;;;;;;;1.00;1.00;;;;;38.99;20.70;100836.22;5011692;28;45559;-74
2022/09/05 11:38:58;;;;;;;;;0.00;0.00;;;;;39.32;21.28;100829.88;5013126;28;45404;-76
2022/09/05 11:41:56;;;;;;;;;0.00;0.00;;;;;39.56;20.71;100824.78;5031334;28;45315;-74
2022/09/05 11:44:32;;;;;;;;;1.00;1.00;;;;;39.70;20.59;100828.34;5033030;28;46238;-75
2022/09/05 11:47:14;;;;;;;;;0.25;0.25;;;;;39.80;20.62;100814.91;5032709;28;45618;-75
2022/09/05 11:49:42;;;;;;;;;3.00;2.00;;;;;39.88;21.10;100822.09;5036922;28;45271;-75
2022/09/05 11:52:45;;;;;;;;;0.50;0.50;;;;;39.70;20.74;100815.34;5018000;28;45617;-75
2022/09/05 11:55:32;;;;;;;;;0.00;0.00;;;;;39.72;19.99;100804.94;5035974;28;46199;-74
2022/09/05 11:58:22;;;;;;;;;1.00;0.00;;;;;39.66;20.75;100811.31;5036348;28;45517;-75
2022/09/05 12:01:09;;;;;;;;;1.00;1.00;;;;;39.77;20.88;100805.13;5035622;28;45534;-74
2022/09/05 12:04:17;;;;;;;;;1.00;1.00;;;;;39.67;19.43;100792.84;5036604;28;45345;-74
2022/09/05 12:06:56;;;;;;;;;1.00;1.00;;;;;39.66;21.48;100797.50;5035686;28;46138;-75
2022/09/05 12:10:02;;;;;;;;;2.50;1.50;;;;;39.69;21.43;100798.97;5018426;28;45428;-75
2022/09/05 12:12:35;;;;;;;;;1.00;1.00;;;;;39.25;21.06;100793.09;4954298;28;45482;-74
2022/09/05 12:15:06;;;;;;;;;1.00;1.00;;;;;38.63;20.92;100779.50;4954340;28;45668;-75
2022/09/05 12:17:50;;;;;;;;;1.75;1.75;;;;;37.97;22.22;100783.78;4954545;28;46253;-74
2022/09/05 12:20:34;;;;;;;;;3.75;2.25;;;;;37.35;22.71;100774.53;4954319;28;45480;-74
2022/09/05 12:23:16;;;;;;;;;1.00;1.00;;;;;36.73;21.87;100788.03;4954652;28;45475;-75
2022/09/05 12:25:49;;;;;;;;;1.00;1.00;;;;;36.38;22.34;100779.66;4953937;28;45624;-74
2022/09/05 12:28:25;;;;;;;;;2.75;2.00;;;;;35.93;22.96;100776.97;4953814;28;47923;-75
2022/09/05 12:30:52;;;;;;;;;2.00;2.00;;;;;35.30;23.47;100770.19;4935539;28;45672;-75
2022/09/05 12:33:30;;;;;;;;;1.00;1.00;;;;;34.87;23.77;100770.75;4934771;28;45629;-76
2022/09/05 12:36:02;;;;;;;;;2.00;2.00;;;;;34.73;25.08;100758.69;4918734;28;45559;-76